ノヴォシビルスク の空港の天気 - METARとTAF

トルマチェヴォ空港(ノヴォシビルスク) ( UNNT / OVB ) - ロシア ノヴォシビルスク
飛行場実況気象(Metar)
観測時間11/30 22:00 OMST (11/30 16:00 UTC)
風向・風速西 2m/s
視程8000m
天気現象
なし
気温-26℃
湿度76%
気圧1045hPa
METARUNNT 301600Z 27002MPS 8000 NSC M26/M29 Q1045 R25/810160 R16/////// NOSIG RMK QFE773/1031
過去の天気等 Google飛行場航空写真 Wunderground天気予報

過去48時間のMETAR

飛行場予報(TAF)
発表時間: 11/30 20:00 OMST (11/30 14:00 UTC)
予報対象時間: 30日21時 OMST ~ 1日21時 OMST
風向・風速北 3m/s 瞬間風速 8m/s
視程6000m
全天の8割程度の雲 雲底高度 1220m
30日22時 OMST ~ 1日9時 OMST に一時的に
視程500m
天気現象煙 氷霧
全天の4割程度の雲 雲底高度 60m
1日10時 OMST ~ 1日14時 OMST に徐々に
視程10km以上
1日14時 OMST ~ 1日21時 OMST に一時的に
天気現象弱い雪
全天の4割程度の雲 雲底高度 490m
TAF UNNT 301400Z 3015/0115 01003G08MPS 6000 BKN040
TEMPO 3016/0103 0500 FU FZFG SCT002
BECMG 0104/0108 9999
TEMPO 0108/0115 -SN SCT016